sensor_id;sensor_type;location;lat;lon;timestamp;P1;durP1;ratioP1;P2;durP2;ratioP2
19919;SDS011;10122;50.074;19.920;2024-03-02T00:02:24;61.17;;;26.75;;
19919;SDS011;10122;50.074;19.920;2024-03-02T00:04:50;53.33;;;25.77;;
19919;SDS011;10122;50.074;19.920;2024-03-02T00:07:16;52.75;;;26.70;;
19919;SDS011;10122;50.074;19.920;2024-03-02T00:09:42;54.00;;;25.10;;
19919;SDS011;10122;50.074;19.920;2024-03-02T00:12:10;52.17;;;25.20;;
19919;SDS011;10122;50.074;19.920;2024-03-02T00:14:40;52.53;;;27.00;;
19919;SDS011;10122;50.074;19.920;2024-03-02T00:17:06;52.60;;;26.73;;
19919;SDS011;10122;50.074;19.920;2024-03-02T00:19:44;54.20;;;26.70;;
19919;SDS011;10122;50.074;19.920;2024-03-02T00:22:11;51.45;;;25.25;;
19919;SDS011;10122;50.074;19.920;2024-03-02T00:24:37;56.20;;;26.40;;
19919;SDS011;10122;50.074;19.920;2024-03-02T00:27:03;54.03;;;26.83;;
19919;SDS011;10122;50.074;19.920;2024-03-02T00:29:30;54.35;;;26.80;;
19919;SDS011;10122;50.074;19.920;2024-03-02T00:31:56;52.58;;;27.05;;
19919;SDS011;10122;50.074;19.920;2024-03-02T00:34:23;52.20;;;25.38;;
19919;SDS011;10122;50.074;19.920;2024-03-02T00:36:48;56.95;;;26.27;;
19919;SDS011;10122;50.074;19.920;2024-03-02T00:39:14;56.30;;;25.10;;
19919;SDS011;10122;50.074;19.920;2024-03-02T00:41:43;51.30;;;26.70;;
19919;SDS011;10122;50.074;19.920;2024-03-02T00:44:09;50.78;;;25.17;;
19919;SDS011;10122;50.074;19.920;2024-03-02T00:46:40;51.35;;;24.98;;
19919;SDS011;10122;50.074;19.920;2024-03-02T00:51:46;44.90;;;24.23;;
19919;SDS011;10122;50.074;19.920;2024-03-02T00:54:15;50.95;;;24.73;;
19919;SDS011;10122;50.074;19.920;2024-03-02T00:56:51;49.85;;;23.77;;
19919;SDS011;10122;50.074;19.920;2024-03-02T00:59:20;51.90;;;23.33;;
19919;SDS011;10122;50.074;19.920;2024-03-02T01:01:47;44.35;;;21.52;;
19919;SDS011;10122;50.074;19.920;2024-03-02T01:04:14;55.40;;;24.75;;
19919;SDS011;10122;50.074;19.920;2024-03-02T01:06:41;54.05;;;24.77;;
19919;SDS011;10122;50.074;19.920;2024-03-02T01:09:10;40.92;;;22.17;;
19919;SDS011;10122;50.074;19.920;2024-03-02T01:11:37;47.15;;;24.70;;
19919;SDS011;10122;50.074;19.920;2024-03-02T01:14:03;50.65;;;24.58;;
19919;SDS011;10122;50.074;19.920;2024-03-02T01:16:29;49.33;;;23.17;;
19919;SDS011;10122;50.074;19.920;2024-03-02T01:18:54;51.78;;;24.63;;
19919;SDS011;10122;50.074;19.920;2024-03-02T01:21:20;42.15;;;19.05;;
19919;SDS011;10122;50.074;19.920;2024-03-02T01:23:46;46.47;;;22.77;;
19919;SDS011;10122;50.074;19.920;2024-03-02T01:26:11;45.75;;;21.42;;
19919;SDS011;10122;50.074;19.920;2024-03-02T01:28:37;50.05;;;23.23;;
19919;SDS011;10122;50.074;19.920;2024-03-02T01:31:03;45.33;;;22.88;;
19919;SDS011;10122;50.074;19.920;2024-03-02T01:33:28;51.88;;;25.13;;
19919;SDS011;10122;50.074;19.920;2024-03-02T01:35:54;54.50;;;27.08;;
19919;SDS011;10122;50.074;19.920;2024-03-02T01:38:20;46.17;;;22.83;;
19919;SDS011;10122;50.074;19.920;2024-03-02T01:40:45;53.30;;;23.20;;
19919;SDS011;10122;50.074;19.920;2024-03-02T01:43:11;49.50;;;23.15;;
19919;SDS011;10122;50.074;19.920;2024-03-02T01:45:37;56.85;;;25.88;;
19919;SDS011;10122;50.074;19.920;2024-03-02T01:48:06;57.08;;;25.98;;
19919;SDS011;10122;50.074;19.920;2024-03-02T01:50:32;52.55;;;24.77;;
19919;SDS011;10122;50.074;19.920;2024-03-02T01:52:59;54.67;;;26.38;;
19919;SDS011;10122;50.074;19.920;2024-03-02T01:55:25;52.40;;;24.70;;
19919;SDS011;10122;50.074;19.920;2024-03-02T01:57:54;51.17;;;24.73;;
19919;SDS011;10122;50.074;19.920;2024-03-02T02:00:20;56.15;;;26.58;;
19919;SDS011;10122;50.074;19.920;2024-03-02T02:02:46;44.20;;;21.80;;
19919;SDS011;10122;50.074;19.920;2024-03-02T02:05:13;55.80;;;26.45;;
19919;SDS011;10122;50.074;19.920;2024-03-02T02:07:40;54.00;;;25.75;;
19919;SDS011;10122;50.074;19.920;2024-03-02T02:10:07;57.42;;;25.40;;
19919;SDS011;10122;50.074;19.920;2024-03-02T02:12:33;58.85;;;27.58;;
19919;SDS011;10122;50.074;19.920;2024-03-02T02:14:59;52.38;;;24.05;;
19919;SDS011;10122;50.074;19.920;2024-03-02T02:17:25;49.60;;;25.00;;
19919;SDS011;10122;50.074;19.920;2024-03-02T02:19:51;48.88;;;23.27;;
19919;SDS011;10122;50.074;19.920;2024-03-02T02:22:17;49.05;;;23.48;;
19919;SDS011;10122;50.074;19.920;2024-03-02T02:24:43;42.67;;;21.67;;
19919;SDS011;10122;50.074;19.920;2024-03-02T02:27:09;63.17;;;27.27;;
19919;SDS011;10122;50.074;19.920;2024-03-02T02:29:35;52.13;;;25.42;;
19919;SDS011;10122;50.074;19.920;2024-03-02T02:32:01;54.63;;;25.70;;
19919;SDS011;10122;50.074;19.920;2024-03-02T02:34:27;57.60;;;26.63;;
19919;SDS011;10122;50.074;19.920;2024-03-02T02:36:53;53.20;;;26.00;;
19919;SDS011;10122;50.074;19.920;2024-03-02T02:39:20;48.30;;;24.52;;
19919;SDS011;10122;50.074;19.920;2024-03-02T02:41:47;48.53;;;24.50;;
19919;SDS011;10122;50.074;19.920;2024-03-02T02:44:13;50.97;;;24.48;;
19919;SDS011;10122;50.074;19.920;2024-03-02T02:46:39;53.63;;;24.20;;
19919;SDS011;10122;50.074;19.920;2024-03-02T02:49:05;52.17;;;24.08;;
19919;SDS011;10122;50.074;19.920;2024-03-02T02:51:31;51.30;;;23.45;;
19919;SDS011;10122;50.074;19.920;2024-03-02T02:53:57;44.78;;;23.52;;
19919;SDS011;10122;50.074;19.920;2024-03-02T02:56:23;44.58;;;23.73;;
19919;SDS011;10122;50.074;19.920;2024-03-02T02:58:49;43.53;;;22.70;;
19919;SDS011;10122;50.074;19.920;2024-03-02T03:01:15;50.67;;;24.58;;
19919;SDS011;10122;50.074;19.920;2024-03-02T03:03:44;48.25;;;22.42;;
19919;SDS011;10122;50.074;19.920;2024-03-02T03:06:10;43.85;;;20.02;;
19919;SDS011;10122;50.074;19.920;2024-03-02T03:08:37;43.95;;;22.30;;
19919;SDS011;10122;50.074;19.920;2024-03-02T03:11:03;45.28;;;22.08;;
19919;SDS011;10122;50.074;19.920;2024-03-02T03:13:30;45.60;;;22.35;;
19919;SDS011;10122;50.074;19.920;2024-03-02T03:15:57;47.85;;;22.55;;
19919;SDS011;10122;50.074;19.920;2024-03-02T03:18:22;52.53;;;23.88;;
19919;SDS011;10122;50.074;19.920;2024-03-02T03:20:48;46.28;;;23.52;;
19919;SDS011;10122;50.074;19.920;2024-03-02T03:23:15;48.05;;;23.75;;
19919;SDS011;10122;50.074;19.920;2024-03-02T03:25:41;41.72;;;22.15;;
19919;SDS011;10122;50.074;19.920;2024-03-02T03:28:10;44.40;;;21.67;;
19919;SDS011;10122;50.074;19.920;2024-03-02T03:30:39;46.08;;;22.15;;
19919;SDS011;10122;50.074;19.920;2024-03-02T03:33:05;43.35;;;21.63;;
19919;SDS011;10122;50.074;19.920;2024-03-02T03:35:34;44.40;;;22.55;;
19919;SDS011;10122;50.074;19.920;2024-03-02T03:37:59;47.35;;;23.60;;
19919;SDS011;10122;50.074;19.920;2024-03-02T03:40:26;40.17;;;21.02;;
19919;SDS011;10122;50.074;19.920;2024-03-02T03:42:52;36.03;;;17.90;;
19919;SDS011;10122;50.074;19.920;2024-03-02T03:45:18;46.53;;;21.15;;
19919;SDS011;10122;50.074;19.920;2024-03-02T03:47:44;37.33;;;20.17;;
19919;SDS011;10122;50.074;19.920;2024-03-02T03:50:10;46.20;;;21.17;;
19919;SDS011;10122;50.074;19.920;2024-03-02T03:52:35;40.20;;;21.17;;
19919;SDS011;10122;50.074;19.920;2024-03-02T03:55:01;39.13;;;18.98;;
19919;SDS011;10122;50.074;19.920;2024-03-02T03:57:27;39.47;;;19.70;;
19919;SDS011;10122;50.074;19.920;2024-03-02T03:59:53;41.38;;;21.83;;
19919;SDS011;10122;50.074;19.920;2024-03-02T04:02:19;41.72;;;21.13;;
19919;SDS011;10122;50.074;19.920;2024-03-02T04:04:45;30.98;;;17.33;;
19919;SDS011;10122;50.074;19.920;2024-03-02T04:07:11;48.92;;;23.83;;
19919;SDS011;10122;50.074;19.920;2024-03-02T04:09:36;45.90;;;22.65;;
19919;SDS011;10122;50.074;19.920;2024-03-02T04:12:02;42.20;;;20.45;;
19919;SDS011;10122;50.074;19.920;2024-03-02T04:14:28;28.95;;;16.52;;
19919;SDS011;10122;50.074;19.920;2024-03-02T04:16:53;45.22;;;22.38;;
19919;SDS011;10122;50.074;19.920;2024-03-02T04:19:19;43.85;;;22.55;;
19919;SDS011;10122;50.074;19.920;2024-03-02T04:21:45;50.47;;;23.75;;
19919;SDS011;10122;50.074;19.920;2024-03-02T04:24:10;49.97;;;21.77;;
19919;SDS011;10122;50.074;19.920;2024-03-02T04:26:36;41.40;;;20.98;;
19919;SDS011;10122;50.074;19.920;2024-03-02T04:29:02;33.78;;;18.92;;
19919;SDS011;10122;50.074;19.920;2024-03-02T04:31:27;41.58;;;20.52;;
19919;SDS011;10122;50.074;19.920;2024-03-02T04:33:53;38.22;;;20.80;;
19919;SDS011;10122;50.074;19.920;2024-03-02T04:36:19;39.92;;;19.70;;
19919;SDS011;10122;50.074;19.920;2024-03-02T04:38:46;46.60;;;21.10;;
19919;SDS011;10122;50.074;19.920;2024-03-02T04:41:11;41.15;;;21.88;;
19919;SDS011;10122;50.074;19.920;2024-03-02T04:43:37;35.55;;;19.70;;
19919;SDS011;10122;50.074;19.920;2024-03-02T04:46:03;35.60;;;17.30;;
19919;SDS011;10122;50.074;19.920;2024-03-02T04:48:30;36.88;;;20.38;;
19919;SDS011;10122;50.074;19.920;2024-03-02T04:50:56;45.90;;;21.48;;
19919;SDS011;10122;50.074;19.920;2024-03-02T04:53:22;39.00;;;21.02;;
19919;SDS011;10122;50.074;19.920;2024-03-02T04:55:47;46.40;;;22.58;;
19919;SDS011;10122;50.074;19.920;2024-03-02T04:58:19;43.42;;;22.63;;
19919;SDS011;10122;50.074;19.920;2024-03-02T05:00:44;45.70;;;21.83;;
19919;SDS011;10122;50.074;19.920;2024-03-02T05:03:11;43.03;;;21.98;;
19919;SDS011;10122;50.074;19.920;2024-03-02T05:05:38;45.05;;;21.85;;
19919;SDS011;10122;50.074;19.920;2024-03-02T05:08:04;38.97;;;21.17;;
19919;SDS011;10122;50.074;19.920;2024-03-02T05:10:29;37.30;;;20.63;;
19919;SDS011;10122;50.074;19.920;2024-03-02T05:12:55;41.85;;;22.30;;
19919;SDS011;10122;50.074;19.920;2024-03-02T05:15:24;42.25;;;22.65;;
19919;SDS011;10122;50.074;19.920;2024-03-02T05:17:51;39.20;;;21.25;;
19919;SDS011;10122;50.074;19.920;2024-03-02T05:20:16;47.15;;;21.52;;
19919;SDS011;10122;50.074;19.920;2024-03-02T05:22:42;40.65;;;22.02;;
19919;SDS011;10122;50.074;19.920;2024-03-02T05:25:08;39.58;;;20.90;;
19919;SDS011;10122;50.074;19.920;2024-03-02T05:27:37;42.50;;;20.40;;
19919;SDS011;10122;50.074;19.920;2024-03-02T05:30:02;39.38;;;21.85;;
19919;SDS011;10122;50.074;19.920;2024-03-02T05:32:31;39.22;;;21.08;;
19919;SDS011;10122;50.074;19.920;2024-03-02T05:34:58;40.20;;;20.90;;
19919;SDS011;10122;50.074;19.920;2024-03-02T05:37:24;46.03;;;21.40;;
19919;SDS011;10122;50.074;19.920;2024-03-02T05:39:50;42.83;;;21.70;;
19919;SDS011;10122;50.074;19.920;2024-03-02T05:42:15;39.70;;;20.98;;
19919;SDS011;10122;50.074;19.920;2024-03-02T05:44:43;36.63;;;20.20;;
19919;SDS011;10122;50.074;19.920;2024-03-02T05:47:09;40.38;;;20.75;;
19919;SDS011;10122;50.074;19.920;2024-03-02T05:49:35;45.58;;;21.98;;
19919;SDS011;10122;50.074;19.920;2024-03-02T05:52:01;44.53;;;22.63;;
19919;SDS011;10122;50.074;19.920;2024-03-02T05:54:26;39.72;;;20.75;;
19919;SDS011;10122;50.074;19.920;2024-03-02T05:56:52;41.38;;;22.05;;
19919;SDS011;10122;50.074;19.920;2024-03-02T05:59:18;41.67;;;20.92;;
19919;SDS011;10122;50.074;19.920;2024-03-02T06:01:45;42.38;;;21.88;;
19919;SDS011;10122;50.074;19.920;2024-03-02T06:04:12;44.08;;;22.25;;
19919;SDS011;10122;50.074;19.920;2024-03-02T06:06:38;38.90;;;20.95;;
19919;SDS011;10122;50.074;19.920;2024-03-02T06:09:05;40.35;;;20.83;;
19919;SDS011;10122;50.074;19.920;2024-03-02T06:11:35;44.33;;;21.63;;
19919;SDS011;10122;50.074;19.920;2024-03-02T06:14:05;39.42;;;22.30;;
19919;SDS011;10122;50.074;19.920;2024-03-02T06:16:32;44.08;;;21.88;;
19919;SDS011;10122;50.074;19.920;2024-03-02T06:18:58;42.75;;;21.95;;
19919;SDS011;10122;50.074;19.920;2024-03-02T06:21:24;41.25;;;21.45;;
19919;SDS011;10122;50.074;19.920;2024-03-02T06:23:50;43.92;;;21.77;;
19919;SDS011;10122;50.074;19.920;2024-03-02T06:26:16;51.40;;;22.88;;
19919;SDS011;10122;50.074;19.920;2024-03-02T06:28:43;39.63;;;23.00;;
19919;SDS011;10122;50.074;19.920;2024-03-02T06:31:09;43.75;;;22.08;;
19919;SDS011;10122;50.074;19.920;2024-03-02T06:33:35;45.45;;;22.75;;
19919;SDS011;10122;50.074;19.920;2024-03-02T06:36:01;44.22;;;22.17;;
19919;SDS011;10122;50.074;19.920;2024-03-02T06:38:27;39.08;;;21.00;;
19919;SDS011;10122;50.074;19.920;2024-03-02T06:40:53;40.92;;;21.88;;
19919;SDS011;10122;50.074;19.920;2024-03-02T06:43:20;42.75;;;21.38;;
19919;SDS011;10122;50.074;19.920;2024-03-02T06:45:52;44.33;;;21.90;;
19919;SDS011;10122;50.074;19.920;2024-03-02T06:48:18;44.03;;;21.95;;
19919;SDS011;10122;50.074;19.920;2024-03-02T06:50:47;45.10;;;23.10;;
19919;SDS011;10122;50.074;19.920;2024-03-02T06:53:13;42.38;;;21.65;;
19919;SDS011;10122;50.074;19.920;2024-03-02T06:55:39;43.13;;;22.63;;
19919;SDS011;10122;50.074;19.920;2024-03-02T06:58:05;43.03;;;23.10;;
19919;SDS011;10122;50.074;19.920;2024-03-02T07:00:30;44.95;;;22.65;;
19919;SDS011;10122;50.074;19.920;2024-03-02T07:02:56;46.50;;;23.17;;
19919;SDS011;10122;50.074;19.920;2024-03-02T07:05:22;43.55;;;22.08;;
19919;SDS011;10122;50.074;19.920;2024-03-02T07:07:47;45.15;;;23.55;;
19919;SDS011;10122;50.074;19.920;2024-03-02T07:10:13;48.22;;;23.83;;
19919;SDS011;10122;50.074;19.920;2024-03-02T07:12:39;45.63;;;23.80;;
19919;SDS011;10122;50.074;19.920;2024-03-02T07:15:04;47.60;;;22.55;;
19919;SDS011;10122;50.074;19.920;2024-03-02T07:17:31;39.35;;;22.65;;
19919;SDS011;10122;50.074;19.920;2024-03-02T07:19:57;43.00;;;22.13;;
19919;SDS011;10122;50.074;19.920;2024-03-02T07:22:23;43.70;;;22.70;;
19919;SDS011;10122;50.074;19.920;2024-03-02T07:24:49;48.45;;;23.67;;
19919;SDS011;10122;50.074;19.920;2024-03-02T07:27:15;44.15;;;22.33;;
19919;SDS011;10122;50.074;19.920;2024-03-02T07:29:42;41.50;;;22.73;;
19919;SDS011;10122;50.074;19.920;2024-03-02T07:32:08;40.90;;;22.15;;
19919;SDS011;10122;50.074;19.920;2024-03-02T07:34:35;44.42;;;22.50;;
19919;SDS011;10122;50.074;19.920;2024-03-02T07:37:01;47.28;;;22.65;;
19919;SDS011;10122;50.074;19.920;2024-03-02T07:39:26;42.38;;;21.67;;
19919;SDS011;10122;50.074;19.920;2024-03-02T07:41:52;45.03;;;21.55;;
19919;SDS011;10122;50.074;19.920;2024-03-02T07:44:18;40.78;;;22.02;;
19919;SDS011;10122;50.074;19.920;2024-03-02T07:46:44;42.28;;;22.02;;
19919;SDS011;10122;50.074;19.920;2024-03-02T07:49:17;42.75;;;22.25;;
19919;SDS011;10122;50.074;19.920;2024-03-02T07:51:43;44.17;;;23.25;;
19919;SDS011;10122;50.074;19.920;2024-03-02T07:54:09;36.53;;;21.80;;
19919;SDS011;10122;50.074;19.920;2024-03-02T07:56:35;42.28;;;22.85;;
19919;SDS011;10122;50.074;19.920;2024-03-02T07:59:02;47.83;;;22.35;;
19919;SDS011;10122;50.074;19.920;2024-03-02T08:01:31;41.28;;;21.65;;
19919;SDS011;10122;50.074;19.920;2024-03-02T08:03:58;40.85;;;22.58;;
19919;SDS011;10122;50.074;19.920;2024-03-02T08:06:25;40.88;;;21.92;;
19919;SDS011;10122;50.074;19.920;2024-03-02T08:08:55;41.13;;;21.88;;
19919;SDS011;10122;50.074;19.920;2024-03-02T08:11:21;42.20;;;22.27;;
19919;SDS011;10122;50.074;19.920;2024-03-02T08:13:47;41.45;;;22.73;;
19919;SDS011;10122;50.074;19.920;2024-03-02T08:16:14;43.70;;;22.08;;
19919;SDS011;10122;50.074;19.920;2024-03-02T08:18:47;45.17;;;21.52;;
19919;SDS011;10122;50.074;19.920;2024-03-02T08:21:14;38.72;;;20.75;;
19919;SDS011;10122;50.074;19.920;2024-03-02T08:23:40;40.28;;;20.52;;
19919;SDS011;10122;50.074;19.920;2024-03-02T08:26:07;43.47;;;21.10;;
19919;SDS011;10122;50.074;19.920;2024-03-02T08:28:36;36.00;;;17.83;;
19919;SDS011;10122;50.074;19.920;2024-03-02T08:31:07;39.42;;;20.50;;
19919;SDS011;10122;50.074;19.920;2024-03-02T08:33:34;44.55;;;20.95;;
19919;SDS011;10122;50.074;19.920;2024-03-02T08:36:00;43.88;;;20.50;;
19919;SDS011;10122;50.074;19.920;2024-03-02T08:38:26;48.00;;;24.42;;
19919;SDS011;10122;50.074;19.920;2024-03-02T08:40:52;36.85;;;19.20;;
19919;SDS011;10122;50.074;19.920;2024-03-02T08:43:18;38.78;;;21.55;;
19919;SDS011;10122;50.074;19.920;2024-03-02T08:45:44;41.08;;;20.17;;
19919;SDS011;10122;50.074;19.920;2024-03-02T08:48:10;36.97;;;20.35;;
19919;SDS011;10122;50.074;19.920;2024-03-02T08:50:36;41.80;;;19.90;;
19919;SDS011;10122;50.074;19.920;2024-03-02T08:53:03;47.67;;;21.33;;
19919;SDS011;10122;50.074;19.920;2024-03-02T08:55:28;43.58;;;21.85;;
19919;SDS011;10122;50.074;19.920;2024-03-02T08:57:54;41.72;;;21.50;;
19919;SDS011;10122;50.074;19.920;2024-03-02T09:00:21;39.00;;;21.92;;
19919;SDS011;10122;50.074;19.920;2024-03-02T09:02:47;43.42;;;22.95;;
19919;SDS011;10122;50.074;19.920;2024-03-02T09:05:13;40.63;;;21.80;;
19919;SDS011;10122;50.074;19.920;2024-03-02T09:07:38;40.72;;;21.48;;
19919;SDS011;10122;50.074;19.920;2024-03-02T09:10:05;45.97;;;22.50;;
19919;SDS011;10122;50.074;19.920;2024-03-02T09:12:32;41.05;;;22.77;;
19919;SDS011;10122;50.074;19.920;2024-03-02T09:14:58;32.58;;;18.02;;
19919;SDS011;10122;50.074;19.920;2024-03-02T09:17:25;44.47;;;21.92;;
19919;SDS011;10122;50.074;19.920;2024-03-02T09:19:51;40.20;;;22.05;;
19919;SDS011;10122;50.074;19.920;2024-03-02T09:22:18;41.03;;;21.25;;
19919;SDS011;10122;50.074;19.920;2024-03-02T09:24:44;46.88;;;21.58;;
19919;SDS011;10122;50.074;19.920;2024-03-02T09:27:10;45.22;;;22.77;;
19919;SDS011;10122;50.074;19.920;2024-03-02T09:29:35;52.35;;;26.08;;
19919;SDS011;10122;50.074;19.920;2024-03-02T09:32:01;46.65;;;24.95;;
19919;SDS011;10122;50.074;19.920;2024-03-02T09:34:27;41.65;;;22.25;;
19919;SDS011;10122;50.074;19.920;2024-03-02T09:36:53;47.03;;;23.05;;
19919;SDS011;10122;50.074;19.920;2024-03-02T09:39:18;42.83;;;22.75;;
19919;SDS011;10122;50.074;19.920;2024-03-02T09:41:45;46.28;;;23.80;;
19919;SDS011;10122;50.074;19.920;2024-03-02T09:44:11;46.95;;;23.58;;
19919;SDS011;10122;50.074;19.920;2024-03-02T09:46:37;42.20;;;22.63;;
19919;SDS011;10122;50.074;19.920;2024-03-02T09:49:03;43.65;;;22.35;;
19919;SDS011;10122;50.074;19.920;2024-03-02T09:51:29;49.15;;;24.90;;
19919;SDS011;10122;50.074;19.920;2024-03-02T09:53:56;45.00;;;24.55;;
19919;SDS011;10122;50.074;19.920;2024-03-02T09:56:22;46.50;;;24.58;;
19919;SDS011;10122;50.074;19.920;2024-03-02T09:58:48;47.15;;;24.50;;
19919;SDS011;10122;50.074;19.920;2024-03-02T10:01:14;43.42;;;23.35;;
19919;SDS011;10122;50.074;19.920;2024-03-02T10:03:40;45.35;;;25.65;;
19919;SDS011;10122;50.074;19.920;2024-03-02T10:06:24;44.80;;;24.60;;
19919;SDS011;10122;50.074;19.920;2024-03-02T10:08:51;38.40;;;23.25;;
19919;SDS011;10122;50.074;19.920;2024-03-02T10:11:28;45.28;;;24.58;;
19919;SDS011;10122;50.074;19.920;2024-03-02T10:14:12;48.55;;;24.92;;
19919;SDS011;10122;50.074;19.920;2024-03-02T10:16:42;50.30;;;25.00;;
19919;SDS011;10122;50.074;19.920;2024-03-02T10:19:15;50.13;;;25.95;;
19919;SDS011;10122;50.074;19.920;2024-03-02T10:21:52;44.70;;;25.67;;
19919;SDS011;10122;50.074;19.920;2024-03-02T10:24:19;40.08;;;22.20;;
19919;SDS011;10122;50.074;19.920;2024-03-02T10:26:46;50.90;;;26.67;;
19919;SDS011;10122;50.074;19.920;2024-03-02T10:29:12;49.63;;;24.52;;
19919;SDS011;10122;50.074;19.920;2024-03-02T10:31:38;46.30;;;25.00;;
19919;SDS011;10122;50.074;19.920;2024-03-02T10:34:05;48.22;;;27.15;;
19919;SDS011;10122;50.074;19.920;2024-03-02T10:36:32;53.45;;;25.33;;
19919;SDS011;10122;50.074;19.920;2024-03-02T10:39:01;47.17;;;24.67;;
19919;SDS011;10122;50.074;19.920;2024-03-02T10:41:34;49.28;;;25.35;;
19919;SDS011;10122;50.074;19.920;2024-03-02T10:44:04;44.75;;;25.85;;
19919;SDS011;10122;50.074;19.920;2024-03-02T10:46:31;46.58;;;25.48;;
19919;SDS011;10122;50.074;19.920;2024-03-02T10:49:00;46.38;;;25.38;;
19919;SDS011;10122;50.074;19.920;2024-03-02T10:51:27;44.25;;;24.58;;
19919;SDS011;10122;50.074;19.920;2024-03-02T10:53:56;52.95;;;26.50;;
19919;SDS011;10122;50.074;19.920;2024-03-02T10:56:39;44.38;;;24.27;;
19919;SDS011;10122;50.074;19.920;2024-03-02T11:01:50;49.92;;;24.88;;
19919;SDS011;10122;50.074;19.920;2024-03-02T11:04:16;50.60;;;26.00;;
19919;SDS011;10122;50.074;19.920;2024-03-02T11:06:46;50.08;;;26.33;;
19919;SDS011;10122;50.074;19.920;2024-03-02T11:09:14;54.22;;;25.48;;
19919;SDS011;10122;50.074;19.920;2024-03-02T11:11:42;52.25;;;25.65;;
19919;SDS011;10122;50.074;19.920;2024-03-02T11:14:16;45.72;;;24.98;;
19919;SDS011;10122;50.074;19.920;2024-03-02T11:16:43;46.65;;;24.50;;
19919;SDS011;10122;50.074;19.920;2024-03-02T11:19:11;42.78;;;24.48;;
19919;SDS011;10122;50.074;19.920;2024-03-02T11:21:38;45.72;;;24.90;;
19919;SDS011;10122;50.074;19.920;2024-03-02T11:26:49;47.45;;;24.30;;
19919;SDS011;10122;50.074;19.920;2024-03-02T11:30:00;48.88;;;23.95;;
19919;SDS011;10122;50.074;19.920;2024-03-02T11:34:40;41.42;;;22.45;;
19919;SDS011;10122;50.074;19.920;2024-03-02T11:37:12;36.35;;;21.52;;
19919;SDS011;10122;50.074;19.920;2024-03-02T11:39:39;42.47;;;23.42;;
19919;SDS011;10122;50.074;19.920;2024-03-02T11:42:05;41.00;;;20.85;;
19919;SDS011;10122;50.074;19.920;2024-03-02T11:44:34;52.10;;;25.42;;
19919;SDS011;10122;50.074;19.920;2024-03-02T11:47:02;46.03;;;23.83;;
19919;SDS011;10122;50.074;19.920;2024-03-02T11:49:45;45.92;;;25.45;;
19919;SDS011;10122;50.074;19.920;2024-03-02T11:52:16;43.95;;;24.77;;
19919;SDS011;10122;50.074;19.920;2024-03-02T11:54:43;45.70;;;24.00;;
19919;SDS011;10122;50.074;19.920;2024-03-02T11:57:20;48.95;;;25.33;;
19919;SDS011;10122;50.074;19.920;2024-03-02T11:59:49;52.00;;;26.75;;
19919;SDS011;10122;50.074;19.920;2024-03-02T12:02:16;55.03;;;28.02;;
19919;SDS011;10122;50.074;19.920;2024-03-02T12:04:43;56.17;;;26.80;;
19919;SDS011;10122;50.074;19.920;2024-03-02T12:07:10;57.80;;;29.10;;
19919;SDS011;10122;50.074;19.920;2024-03-02T12:09:36;53.22;;;28.55;;
19919;SDS011;10122;50.074;19.920;2024-03-02T12:12:08;51.53;;;25.77;;
19919;SDS011;10122;50.074;19.920;2024-03-02T12:14:36;45.60;;;25.73;;
19919;SDS011;10122;50.074;19.920;2024-03-02T12:17:02;55.95;;;26.90;;
19919;SDS011;10122;50.074;19.920;2024-03-02T12:19:29;48.28;;;25.35;;
19919;SDS011;10122;50.074;19.920;2024-03-02T12:21:58;43.40;;;25.23;;
19919;SDS011;10122;50.074;19.920;2024-03-02T12:24:28;42.97;;;24.00;;
19919;SDS011;10122;50.074;19.920;2024-03-02T12:26:55;44.40;;;23.92;;
19919;SDS011;10122;50.074;19.920;2024-03-02T12:29:21;46.53;;;26.02;;
19919;SDS011;10122;50.074;19.920;2024-03-02T12:31:49;51.35;;;27.85;;
19919;SDS011;10122;50.074;19.920;2024-03-02T12:34:15;54.90;;;28.83;;
19919;SDS011;10122;50.074;19.920;2024-03-02T12:36:42;54.45;;;29.25;;
19919;SDS011;10122;50.074;19.920;2024-03-02T12:39:08;66.90;;;32.85;;
19919;SDS011;10122;50.074;19.920;2024-03-02T12:41:37;64.97;;;32.35;;
19919;SDS011;10122;50.074;19.920;2024-03-02T12:44:03;72.53;;;36.33;;
19919;SDS011;10122;50.074;19.920;2024-03-02T12:46:30;85.75;;;39.33;;
19919;SDS011;10122;50.074;19.920;2024-03-02T12:49:04;80.88;;;37.80;;
19919;SDS011;10122;50.074;19.920;2024-03-02T12:51:35;68.38;;;35.33;;
19919;SDS011;10122;50.074;19.920;2024-03-02T12:54:02;71.55;;;37.10;;
19919;SDS011;10122;50.074;19.920;2024-03-02T12:56:28;71.13;;;35.50;;
19919;SDS011;10122;50.074;19.920;2024-03-02T12:58:55;77.40;;;37.40;;
19919;SDS011;10122;50.074;19.920;2024-03-02T13:01:20;77.07;;;37.33;;
19919;SDS011;10122;50.074;19.920;2024-03-02T13:03:49;80.50;;;38.95;;
19919;SDS011;10122;50.074;19.920;2024-03-02T13:06:18;76.93;;;38.20;;
19919;SDS011;10122;50.074;19.920;2024-03-02T13:08:45;75.47;;;38.30;;
19919;SDS011;10122;50.074;19.920;2024-03-02T13:11:11;78.15;;;37.70;;
19919;SDS011;10122;50.074;19.920;2024-03-02T13:13:38;74.93;;;37.80;;
19919;SDS011;10122;50.074;19.920;2024-03-02T13:16:11;71.57;;;36.20;;
19919;SDS011;10122;50.074;19.920;2024-03-02T13:18:38;62.22;;;34.60;;
19919;SDS011;10122;50.074;19.920;2024-03-02T13:21:05;73.90;;;36.70;;
19919;SDS011;10122;50.074;19.920;2024-03-02T13:23:30;67.15;;;35.58;;
19919;SDS011;10122;50.074;19.920;2024-03-02T13:25:56;70.32;;;34.53;;
19919;SDS011;10122;50.074;19.920;2024-03-02T13:28:25;67.90;;;34.97;;
19919;SDS011;10122;50.074;19.920;2024-03-02T13:30:51;67.75;;;33.50;;
19919;SDS011;10122;50.074;19.920;2024-03-02T13:33:17;65.45;;;34.22;;
19919;SDS011;10122;50.074;19.920;2024-03-02T13:35:50;70.70;;;34.67;;
19919;SDS011;10122;50.074;19.920;2024-03-02T13:38:19;69.80;;;32.95;;
19919;SDS011;10122;50.074;19.920;2024-03-02T13:40:45;62.22;;;33.08;;
19919;SDS011;10122;50.074;19.920;2024-03-02T13:43:16;67.80;;;33.55;;
19919;SDS011;10122;50.074;19.920;2024-03-02T13:45:43;61.60;;;31.63;;
19919;SDS011;10122;50.074;19.920;2024-03-02T13:48:08;64.43;;;32.95;;
19919;SDS011;10122;50.074;19.920;2024-03-02T13:50:34;70.30;;;32.85;;
19919;SDS011;10122;50.074;19.920;2024-03-02T13:53:00;64.78;;;33.55;;
19919;SDS011;10122;50.074;19.920;2024-03-02T13:55:25;60.83;;;31.98;;
19919;SDS011;10122;50.074;19.920;2024-03-02T13:57:51;56.58;;;30.95;;
19919;SDS011;10122;50.074;19.920;2024-03-02T14:00:17;64.63;;;31.67;;
19919;SDS011;10122;50.074;19.920;2024-03-02T14:02:43;62.83;;;31.88;;
19919;SDS011;10122;50.074;19.920;2024-03-02T14:05:11;61.10;;;32.30;;
19919;SDS011;10122;50.074;19.920;2024-03-02T14:07:40;66.72;;;32.25;;
19919;SDS011;10122;50.074;19.920;2024-03-02T14:10:06;60.45;;;31.15;;
19919;SDS011;10122;50.074;19.920;2024-03-02T14:12:32;54.15;;;29.33;;
19919;SDS011;10122;50.074;19.920;2024-03-02T14:14:58;49.72;;;28.52;;
19919;SDS011;10122;50.074;19.920;2024-03-02T14:17:27;53.75;;;28.90;;
19919;SDS011;10122;50.074;19.920;2024-03-02T14:19:53;49.58;;;26.38;;